Time,TemperatureF,DewpointF,PressureIn,WindDirection,WindDirectionDegrees,WindSpeedMPH,WindSpeedGustMPH,Humidity,HourlyPrecipIn,Conditions,Clouds,dailyrainin,SoftwareType,DateUTC
2013-11-29 00:02:00,22.1,20.6,30.17,SW,215,1.0,2.0,94,0.00,,---,0.00,VWS V14.01,2013-11-29 07:02:00,
2013-11-29 00:07:00,22.2,20.7,30.17,SW,215,0.0,2.0,94,0.00,,---,0.00,VWS V14.01,2013-11-29 07:07:00,
2013-11-29 00:12:00,22.3,20.8,30.17,SW,215,1.0,2.0,94,0.00,,---,0.00,VWS V14.01,2013-11-29 07:12:00,
2013-11-29 00:17:00,22.0,20.5,30.17,SW,215,1.0,1.0,94,0.00,,---,0.00,VWS V14.01,2013-11-29 07:17:00,
2013-11-29 00:22:00,22.0,20.5,30.17,SW,215,0.0,1.0,94,0.00,,---,0.00,VWS V14.01,2013-11-29 07:22:00,
2013-11-29 00:27:00,22.0,20.5,30.17,SW,215,0.0,1.0,94,0.00,,---,0.00,VWS V14.01,2013-11-29 07:27:00,
2013-11-29 00:32:00,22.1,20.6,30.17,SW,215,0.0,0.0,94,0.00,,---,0.00,VWS V14.01,2013-11-29 07:32:00,
2013-11-29 00:37:00,22.7,21.5,30.17,SW,215,0.0,1.0,95,0.00,,---,0.00,VWS V14.01,2013-11-29 07:37:00,
2013-11-29 00:42:00,23.1,21.9,30.17,SW,215,1.0,2.0,95,0.00,,---,0.00,VWS V14.01,2013-11-29 07:42:00,
2013-11-29 00:47:00,23.3,22.1,30.16,SW,215,0.0,1.0,95,0.00,,---,0.00,VWS V14.01,2013-11-29 07:47:00,
2013-11-29 00:52:00,23.8,22.3,30.16,SW,229,0.0,1.0,94,0.00,,---,0.00,VWS V14.01,2013-11-29 07:52:00,
2013-11-29 00:57:00,24.1,22.4,30.16,SW,228,2.0,2.0,93,0.00,,---,0.00,VWS V14.01,2013-11-29 07:57:00,
2013-11-29 01:02:00,24.7,22.7,30.16,SW,230,0.0,1.0,92,0.00,,---,0.00,VWS V14.01,2013-11-29 08:02:00,
2013-11-29 01:07:00,24.8,22.3,30.16,WSW,239,0.0,2.0,90,0.00,,---,0.00,VWS V14.01,2013-11-29 08:07:00,
2013-11-29 01:12:00,25.0,22.0,30.16,WSW,244,0.0,1.0,88,0.00,,---,0.00,VWS V14.01,2013-11-29 08:12:00,
2013-11-29 01:17:00,25.2,21.9,30.16,WSW,240,0.0,1.0,87,0.00,,---,0.00,VWS V14.01,2013-11-29 08:17:00,
2013-11-29 01:22:00,25.6,21.2,30.16,WSW,239,0.0,1.0,83,0.00,,---,0.00,VWS V14.01,2013-11-29 08:22:00,
2013-11-29 01:27:00,26.3,20.4,30.16,SW,231,3.0,3.0,78,0.00,,---,0.00,VWS V14.01,2013-11-29 08:27:00,
2013-11-29 01:32:00,27.4,20.2,30.16,SW,234,0.0,1.0,74,0.00,,---,0.00,VWS V14.01,2013-11-29 08:32:00,
2013-11-29 01:37:00,27.9,19.7,30.16,SW,234,0.0,1.0,71,0.00,,---,0.00,VWS V14.01,2013-11-29 08:37:00,
2013-11-29 01:42:00,28.3,19.1,30.16,SW,231,0.0,3.0,68,0.00,,---,0.00,VWS V14.01,2013-11-29 08:42:00,
2013-11-29 01:46:00,28.9,19.0,30.16,NW,304,1.0,3.0,66,0.00,,---,0.00,VWS V14.01,2013-11-29 08:46:00,
2013-11-29 01:51:00,29.2,18.9,30.16,West,281,1.0,6.0,65,0.00,,---,0.00,VWS V14.01,2013-11-29 08:51:00,
2013-11-29 01:56:00,29.8,18.0,30.16,WNW,299,0.0,4.0,61,0.00,,---,0.00,VWS V14.01,2013-11-29 08:56:00,
2013-11-29 02:01:00,30.7,18.5,30.16,WNW,299,1.0,1.0,60,0.00,,---,0.00,VWS V14.01,2013-11-29 09:01:00,
2013-11-29 02:06:00,31.0,17.6,30.17,NNW,327,0.0,2.0,57,0.00,,---,0.00,VWS V14.01,2013-11-29 09:06:00,
2013-11-29 02:11:00,31.3,17.4,30.17,SW,220,0.0,1.0,56,0.00,,---,0.00,VWS V14.01,2013-11-29 09:11:00,
2013-11-29 02:16:00,31.5,17.2,30.17,SW,227,0.0,1.0,55,0.00,,---,0.00,VWS V14.01,2013-11-29 09:16:00,
2013-11-29 02:21:00,31.8,16.6,30.17,NW,311,1.0,2.0,53,0.00,,---,0.00,VWS V14.01,2013-11-29 09:21:00,
2013-11-29 02:26:00,32.4,16.3,30.17,NW,310,1.0,1.0,51,0.00,,---,0.00,VWS V14.01,2013-11-29 09:26:00,
2013-11-29 02:31:00,32.9,14.9,30.17,NW,307,0.0,1.0,47,0.00,,---,0.00,VWS V14.01,2013-11-29 09:31:00,
2013-11-29 02:36:00,33.4,15.4,30.17,WNW,287,0.0,1.0,47,0.00,,---,0.00,VWS V14.01,2013-11-29 09:36:00,
2013-11-29 02:41:00,33.7,15.6,30.17,WNW,294,1.0,1.0,47,0.00,,---,0.00,VWS V14.01,2013-11-29 09:41:00,
2013-11-29 02:46:00,33.9,15.3,30.17,NW,304,0.0,1.0,46,0.00,,---,0.00,VWS V14.01,2013-11-29 09:46:00,
2013-11-29 02:51:00,33.9,15.3,30.17,WNW,288,0.0,0.0,46,0.00,,---,0.00,VWS V14.01,2013-11-29 09:51:00,
2013-11-29 02:56:00,33.9,14.8,30.17,WSW,248,0.0,1.0,45,0.00,,---,0.00,VWS V14.01,2013-11-29 09:56:00,
2013-11-29 03:01:00,33.9,14.8,30.16,West,275,0.0,1.0,45,0.00,,---,0.00,VWS V14.01,2013-11-29 10:01:00,
2013-11-29 03:06:00,33.8,14.7,30.16,WNW,284,0.0,3.0,45,0.00,,---,0.00,VWS V14.01,2013-11-29 10:06:00,
2013-11-29 03:11:00,34.2,15.6,30.16,WNW,286,2.0,4.0,46,0.00,,---,0.00,VWS V14.01,2013-11-29 10:11:00,
2013-11-29 03:16:00,34.5,15.4,30.16,WNW,296,1.0,5.0,45,0.00,,---,0.00,VWS V14.01,2013-11-29 10:16:00,
2013-11-29 03:21:00,34.6,14.4,30.16,WNW,284,3.0,5.0,43,0.00,,---,0.00,VWS V14.01,2013-11-29 10:21:00,
2013-11-29 03:26:00,34.8,14.6,30.16,WNW,285,1.0,2.0,43,0.00,,---,0.00,VWS V14.01,2013-11-29 10:26:00,
2013-11-29 03:31:00,34.7,14.0,30.16,WNW,286,3.0,6.0,42,0.00,,---,0.00,VWS V14.01,2013-11-29 10:31:00,
2013-11-29 03:36:00,34.8,14.6,30.16,West,281,0.0,5.0,43,0.00,,---,0.00,VWS V14.01,2013-11-29 10:36:00,
2013-11-29 03:41:00,35.2,14.4,30.16,WNW,290,1.0,4.0,42,0.00,,---,0.00,VWS V14.01,2013-11-29 10:41:00,
2013-11-29 03:46:00,35.5,14.1,30.16,WNW,292,1.0,4.0,41,0.00,,---,0.00,VWS V14.01,2013-11-29 10:46:00,
2013-11-29 03:51:00,35.6,14.2,30.16,WSW,248,0.0,3.0,41,0.00,,---,0.00,VWS V14.01,2013-11-29 10:51:00,
2013-11-29 03:56:00,35.3,14.5,30.16,West,272,0.0,2.0,42,0.00,,---,0.00,VWS V14.01,2013-11-29 10:56:00,
2013-11-29 04:01:00,35.2,15.0,30.16,WNW,290,0.0,3.0,43,0.00,,---,0.00,VWS V14.01,2013-11-29 11:01:00,
2013-11-29 04:06:00,35.1,14.3,30.16,NW,319,2.0,7.0,42,0.00,,---,0.00,VWS V14.01,2013-11-29 11:06:00,
2013-11-29 04:11:00,35.2,13.9,30.16,SW,228,0.0,4.0,41,0.00,,---,0.00,VWS V14.01,2013-11-29 11:11:00,
2013-11-29 04:16:00,35.2,14.4,30.16,West,266,1.0,2.0,42,0.00,,---,0.00,VWS V14.01,2013-11-29 11:16:00,
2013-11-29 04:21:00,35.1,14.3,30.16,WSW,257,0.0,5.0,42,0.00,,---,0.00,VWS V14.01,2013-11-29 11:21:00,
2013-11-29 04:26:00,34.8,14.1,30.16,WNW,284,2.0,3.0,42,0.00,,---,0.00,VWS V14.01,2013-11-29 11:26:00,
2013-11-29 04:31:00,34.8,14.1,30.16,WNW,285,3.0,4.0,42,0.00,,---,0.00,VWS V14.01,2013-11-29 11:31:00,
2013-11-29 04:36:00,35.3,13.4,30.16,WNW,294,2.0,5.0,40,0.00,,---,0.00,VWS V14.01,2013-11-29 11:36:00,
2013-11-29 04:41:00,35.9,13.4,30.16,WNW,292,1.0,6.0,39,0.00,,---,0.00,VWS V14.01,2013-11-29 11:41:00,
2013-11-29 04:46:00,36.2,13.1,30.16,WNW,288,1.0,5.0,38,0.00,,---,0.00,VWS V14.01,2013-11-29 11:46:00,
2013-11-29 04:51:00,36.4,13.8,30.16,WSW,252,1.0,6.0,39,0.00,,---,0.00,VWS V14.01,2013-11-29 11:51:00,
2013-11-29 04:56:00,36.5,13.3,30.16,WNW,287,1.0,8.0,38,0.00,,---,0.00,VWS V14.01,2013-11-29 11:56:00,
2013-11-29 05:01:00,36.9,13.1,30.16,WNW,302,5.0,8.0,37,0.00,,---,0.00,VWS V14.01,2013-11-29 12:01:00,
2013-11-29 05:06:00,37.1,13.2,30.16,NW,306,3.0,12.0,37,0.00,,---,0.00,VWS V14.01,2013-11-29 12:06:00,
2013-11-29 05:11:00,37.3,13.4,30.16,WNW,285,3.0,6.0,37,0.00,,---,0.00,VWS V14.01,2013-11-29 12:11:00,
2013-11-29 05:16:00,37.2,13.3,30.16,WNW,293,1.0,3.0,37,0.00,,---,0.00,VWS V14.01,2013-11-29 12:16:00,
2013-11-29 05:21:00,37.0,13.2,30.16,WNW,291,2.0,7.0,37,0.00,,---,0.00,VWS V14.01,2013-11-29 12:21:00,
2013-11-29 05:26:00,37.0,13.2,30.16,WNW,302,7.0,7.0,37,0.00,,---,0.00,VWS V14.01,2013-11-29 12:26:00,
2013-11-29 05:31:00,36.9,13.1,30.16,WNW,286,1.0,3.0,37,0.00,,---,0.00,VWS V14.01,2013-11-29 12:31:00,
2013-11-29 05:36:00,36.4,13.2,30.16,NW,306,2.0,2.0,38,0.00,,---,0.00,VWS V14.01,2013-11-29 12:36:00,
2013-11-29 05:41:00,35.7,12.6,30.16,WNW,300,1.0,6.0,38,0.00,,---,0.00,VWS V14.01,2013-11-29 12:41:00,
2013-11-29 05:46:00,35.0,12.6,30.16,WNW,299,3.0,4.0,39,0.00,,---,0.00,VWS V14.01,2013-11-29 12:46:00,
2013-11-29 05:51:00,34.5,12.7,30.16,NNW,336,0.0,3.0,40,0.00,,---,0.00,VWS V14.01,2013-11-29 12:51:00,
2013-11-29 05:56:00,33.8,12.6,30.16,WNW,303,4.0,8.0,41,0.00,,---,0.00,VWS V14.01,2013-11-29 12:56:00,
2013-11-29 06:01:00,33.7,13.1,30.16,WNW,301,2.0,9.0,42,0.00,,---,0.00,VWS V14.01,2013-11-29 13:01:00,
2013-11-29 06:06:00,34.3,13.6,30.16,NW,312,6.0,7.0,42,0.00,,---,0.00,VWS V14.01,2013-11-29 13:06:00,
2013-11-29 06:11:00,34.2,13.0,30.17,WNW,298,7.0,8.0,41,0.00,,---,0.00,VWS V14.01,2013-11-29 13:11:00,
2013-11-29 06:16:00,34.7,13.4,30.17,WNW,296,5.0,6.0,41,0.00,,---,0.00,VWS V14.01,2013-11-29 13:16:00,
2013-11-29 06:21:00,34.6,13.3,30.17,NW,319,5.0,10.0,41,0.00,,---,0.00,VWS V14.01,2013-11-29 13:21:00,
2013-11-29 06:26:00,35.0,13.7,30.17,NW,306,2.0,7.0,41,0.00,,---,0.00,VWS V14.01,2013-11-29 13:26:00,
2013-11-29 06:31:00,35.0,13.1,30.17,WNW,302,7.0,8.0,40,0.00,,---,0.00,VWS V14.01,2013-11-29 13:31:00,
2013-11-29 06:36:00,35.3,13.4,30.17,NW,306,8.0,9.0,40,0.00,,---,0.00,VWS V14.01,2013-11-29 13:36:00,
2013-11-29 06:41:00,35.3,13.4,30.17,WNW,288,4.0,8.0,40,0.00,,---,0.00,VWS V14.01,2013-11-29 13:41:00,
2013-11-29 06:46:00,35.1,13.2,30.17,West,277,6.0,7.0,40,0.00,,---,0.00,VWS V14.01,2013-11-29 13:46:00,
2013-11-29 06:51:00,35.2,13.3,30.17,NW,310,6.0,8.0,40,0.00,,---,0.00,VWS V14.01,2013-11-29 13:51:00,
2013-11-29 06:56:00,35.2,13.3,30.17,WNW,301,2.0,6.0,40,0.00,,---,0.00,VWS V14.01,2013-11-29 13:56:00,
2013-11-29 07:01:00,35.4,12.9,30.18,NW,307,6.0,7.0,39,0.00,,---,0.00,VWS V14.01,2013-11-29 14:01:00,
2013-11-29 07:06:00,35.0,13.1,30.17,WNW,300,6.0,6.0,40,0.00,,---,0.00,VWS V14.01,2013-11-29 14:06:00,
2013-11-29 07:11:00,35.1,13.2,30.18,WNW,300,3.0,4.0,40,0.00,,---,0.00,VWS V14.01,2013-11-29 14:11:00,
2013-11-29 07:16:00,35.6,13.1,30.18,WNW,302,1.0,3.0,39,0.00,,---,0.00,VWS V14.01,2013-11-29 14:16:00,
2013-11-29 07:21:00,35.9,14.5,30.17,WNW,290,2.0,3.0,41,0.00,,---,0.00,VWS V14.01,2013-11-29 14:21:00,
2013-11-29 07:26:00,35.7,13.8,30.18,WNW,290,1.0,2.0,40,0.00,,---,0.00,VWS V14.01,2013-11-29 14:26:00,
2013-11-29 07:31:00,36.0,14.0,30.18,WNW,292,0.0,2.0,40,0.00,,---,0.00,VWS V14.01,2013-11-29 14:31:00,
2013-11-29 07:36:00,36.1,14.7,30.18,WNW,288,1.0,2.0,41,0.00,,---,0.00,VWS V14.01,2013-11-29 14:36:00,
2013-11-29 07:41:00,36.2,14.8,30.18,West,261,1.0,2.0,41,0.00,,---,0.00,VWS V14.01,2013-11-29 14:41:00,
2013-11-29 07:46:00,36.2,14.8,30.18,WNW,296,1.0,1.0,41,0.00,,---,0.00,VWS V14.01,2013-11-29 14:46:00,
2013-11-29 07:51:00,36.6,15.1,30.18,NW,311,2.0,2.0,41,0.00,,---,0.00,VWS V14.01,2013-11-29 14:51:00,
2013-11-29 07:56:00,37.5,15.4,30.18,WSW,253,2.0,4.0,40,0.00,,---,0.00,VWS V14.01,2013-11-29 14:56:00,
2013-11-29 08:01:00,38.4,14.4,30.18,West,273,0.0,3.0,37,0.00,,---,0.00,VWS V14.01,2013-11-29 15:01:00,
2013-11-29 08:06:00,39.3,14.6,30.18,WNW,302,4.0,4.0,36,0.00,,---,0.00,VWS V14.01,2013-11-29 15:06:00,
2013-11-29 08:11:00,40.4,14.3,30.18,WNW,302,2.0,5.0,34,0.00,,---,0.00,VWS V14.01,2013-11-29 15:11:00,
2013-11-29 08:16:00,40.9,16.0,30.19,WNW,302,3.0,4.0,36,0.00,,---,0.00,VWS V14.01,2013-11-29 15:16:00,
2013-11-29 08:21:00,41.2,15.0,30.19,NW,308,3.0,5.0,34,0.00,,---,0.00,VWS V14.01,2013-11-29 15:21:00,
2013-11-29 08:26:00,41.8,14.8,30.19,NW,306,1.0,4.0,33,0.00,,---,0.00,VWS V14.01,2013-11-29 15:26:00,
2013-11-29 08:31:00,42.5,15.4,30.19,NW,309,2.0,3.0,33,0.00,,---,0.00,VWS V14.01,2013-11-29 15:31:00,
2013-11-29 08:36:00,43.6,16.4,30.19,NW,319,3.0,4.0,33,0.00,,---,0.00,VWS V14.01,2013-11-29 15:36:00,
2013-11-29 08:41:00,43.7,17.2,30.19,NW,313,3.0,5.0,34,0.00,,---,0.00,VWS V14.01,2013-11-29 15:41:00,
2013-11-29 08:46:00,43.9,15.2,30.19,WNW,296,3.0,3.0,31,0.00,,---,0.00,VWS V14.01,2013-11-29 15:46:00,
2013-11-29 08:51:00,44.2,15.5,30.19,WNW,303,4.0,6.0,31,0.00,,---,0.00,VWS V14.01,2013-11-29 15:51:00,
2013-11-29 08:56:00,44.4,14.9,30.19,NW,305,4.0,8.0,30,0.00,,---,0.00,VWS V14.01,2013-11-29 15:56:00,
2013-11-29 09:01:00,44.7,14.4,30.19,WNW,294,3.0,9.0,29,0.00,,---,0.00,VWS V14.01,2013-11-29 16:01:00,
2013-11-29 09:06:00,44.7,14.4,30.19,West,275,4.0,8.0,29,0.00,,---,0.00,VWS V14.01,2013-11-29 16:06:00,
2013-11-29 09:11:00,44.7,15.2,30.19,NW,320,4.0,10.0,30,0.00,,---,0.00,VWS V14.01,2013-11-29 16:11:00,
2013-11-29 09:16:00,44.9,15.4,30.19,WNW,286,2.0,5.0,30,0.00,,---,0.00,VWS V14.01,2013-11-29 16:16:00,
2013-11-29 09:21:00,45.2,15.6,30.19,NW,304,3.0,7.0,30,0.00,,---,0.00,VWS V14.01,2013-11-29 16:21:00,
2013-11-29 09:26:00,45.5,14.3,30.19,WSW,244,2.0,5.0,28,0.00,,---,0.00,VWS V14.01,2013-11-29 16:26:00,
2013-11-29 09:31:00,45.9,14.6,30.19,NW,307,2.0,5.0,28,0.00,,---,0.00,VWS V14.01,2013-11-29 16:31:00,
2013-11-29 09:36:00,46.2,14.1,30.19,West,274,1.0,3.0,27,0.00,,---,0.00,VWS V14.01,2013-11-29 16:36:00,
2013-11-29 09:41:00,46.6,13.6,30.20,NW,324,4.0,4.0,26,0.00,,---,0.00,VWS V14.01,2013-11-29 16:41:00,
2013-11-29 09:46:00,47.1,14.0,30.20,NW,315,6.0,6.0,26,0.00,,---,0.00,VWS V14.01,2013-11-29 16:46:00,
2013-11-29 09:51:00,46.9,13.8,30.20,NW,323,3.0,7.0,26,0.00,,---,0.00,VWS V14.01,2013-11-29 16:51:00,
2013-11-29 09:56:00,47.1,13.1,30.19,NW,306,4.0,4.0,25,0.00,,---,0.00,VWS V14.01,2013-11-29 16:56:00,
2013-11-29 10:01:00,47.3,15.0,30.20,WSW,253,3.0,6.0,27,0.00,,---,0.00,VWS V14.01,2013-11-29 17:01:00,
2013-11-29 10:06:00,47.2,13.2,30.19,NW,317,4.0,11.0,25,0.00,,---,0.00,VWS V14.01,2013-11-29 17:06:00,
2013-11-29 10:11:00,47.1,13.1,30.19,WNW,298,5.0,10.0,25,0.00,,---,0.00,VWS V14.01,2013-11-29 17:11:00,
2013-11-29 10:16:00,47.0,13.9,30.19,SW,227,2.0,6.0,26,0.00,,---,0.00,VWS V14.01,2013-11-29 17:16:00,
2013-11-29 10:21:00,47.3,13.3,30.19,NW,310,5.0,5.0,25,0.00,,---,0.00,VWS V14.01,2013-11-29 17:21:00,
2013-11-29 10:26:00,47.6,15.3,30.19,NW,317,7.0,9.0,27,0.00,,---,0.00,VWS V14.01,2013-11-29 17:26:00,
2013-11-29 10:31:00,47.6,13.5,30.19,WNW,290,3.0,6.0,25,0.00,,---,0.00,VWS V14.01,2013-11-29 17:31:00,
2013-11-29 10:36:00,47.8,13.7,30.19,NW,319,4.0,7.0,25,0.00,,---,0.00,VWS V14.01,2013-11-29 17:36:00,
2013-11-29 10:41:00,48.0,13.9,30.19,WNW,299,5.0,6.0,25,0.00,,---,0.00,VWS V14.01,2013-11-29 17:41:00,
2013-11-29 10:46:00,48.3,14.1,30.18,NW,304,3.0,4.0,25,0.00,,---,0.00,VWS V14.01,2013-11-29 17:46:00,
2013-11-29 10:51:00,48.5,14.3,30.18,NW,304,3.0,6.0,25,0.00,,---,0.00,VWS V14.01,2013-11-29 17:51:00,
2013-11-29 10:56:00,48.5,13.4,30.18,WNW,302,7.0,10.0,24,0.00,,---,0.00,VWS V14.01,2013-11-29 17:56:00,
2013-11-29 11:01:00,48.8,15.4,30.18,WNW,295,2.0,10.0,26,0.00,,---,0.00,VWS V14.01,2013-11-29 18:01:00,
2013-11-29 11:06:00,48.8,13.6,30.18,NNW,331,7.0,7.0,24,0.00,,---,0.00,VWS V14.01,2013-11-29 18:06:00,
2013-11-29 11:11:00,48.7,15.4,30.17,NW,320,6.0,8.0,26,0.00,,---,0.00,VWS V14.01,2013-11-29 18:11:00,
2013-11-29 11:16:00,48.7,14.5,30.17,NW,309,5.0,9.0,25,0.00,,---,0.00,VWS V14.01,2013-11-29 18:16:00,
2013-11-29 11:21:00,48.8,15.4,30.17,NW,326,8.0,8.0,26,0.00,,---,0.00,VWS V14.01,2013-11-29 18:21:00,
2013-11-29 11:26:00,49.2,14.9,30.17,NW,325,6.0,6.0,25,0.00,,---,0.00,VWS V14.01,2013-11-29 18:26:00,
2013-11-29 11:31:00,49.4,13.2,30.16,NW,306,4.0,6.0,23,0.00,,---,0.00,VWS V14.01,2013-11-29 18:31:00,
2013-11-29 11:36:00,49.6,14.3,30.16,NW,319,3.0,6.0,24,0.00,,---,0.00,VWS V14.01,2013-11-29 18:36:00,
2013-11-29 11:41:00,49.7,12.4,30.16,North,355,4.0,5.0,22,0.00,,---,0.00,VWS V14.01,2013-11-29 18:41:00,
2013-11-29 11:46:00,50.5,16.0,30.16,NNW,333,6.0,6.0,25,0.00,,---,0.00,VWS V14.01,2013-11-29 18:46:00,
2013-11-29 11:51:00,50.9,15.4,30.16,NNW,328,7.0,7.0,24,0.00,,---,0.00,VWS V14.01,2013-11-29 18:51:00,
2013-11-29 11:56:00,51.0,14.5,30.15,North,355,7.0,7.0,23,0.00,,---,0.00,VWS V14.01,2013-11-29 18:56:00,
2013-11-29 12:01:00,51.1,15.6,30.15,NNW,345,5.0,6.0,24,0.00,,---,0.00,VWS V14.01,2013-11-29 19:01:00,
2013-11-29 12:06:00,51.3,13.8,30.15,NNW,333,0.0,2.0,22,0.00,,---,0.00,VWS V14.01,2013-11-29 19:06:00,
2013-11-29 12:11:00,51.4,15.8,30.14,NNW,331,6.0,8.0,24,0.00,,---,0.00,VWS V14.01,2013-11-29 19:11:00,
2013-11-29 12:16:00,51.2,15.7,30.14,NW,312,4.0,5.0,24,0.00,,---,0.00,VWS V14.01,2013-11-29 19:16:00,
2013-11-29 12:21:00,51.3,14.8,30.14,ENE,74,4.0,4.0,23,0.00,,---,0.00,VWS V14.01,2013-11-29 19:21:00,
2013-11-29 12:26:00,51.2,13.7,30.14,WNW,302,0.0,5.0,22,0.00,,---,0.00,VWS V14.01,2013-11-29 19:26:00,
2013-11-29 12:31:00,51.2,14.7,30.14,NNW,333,2.0,4.0,23,0.00,,---,0.00,VWS V14.01,2013-11-29 19:31:00,
2013-11-29 12:36:00,51.0,13.5,30.13,SW,221,0.0,3.0,22,0.00,,---,0.00,VWS V14.01,2013-11-29 19:36:00,
2013-11-29 12:41:00,51.4,14.9,30.13,NW,313,1.0,4.0,23,0.00,,---,0.00,VWS V14.01,2013-11-29 19:41:00,
2013-11-29 12:46:00,51.6,14.0,30.13,WNW,293,2.0,3.0,22,0.00,,---,0.00,VWS V14.01,2013-11-29 19:46:00,
2013-11-29 12:51:00,51.2,13.7,30.13,SW,234,2.0,2.0,22,0.00,,---,0.00,VWS V14.01,2013-11-29 19:51:00,
2013-11-29 12:56:00,51.4,13.9,30.13,West,267,1.0,5.0,22,0.00,,---,0.00,VWS V14.01,2013-11-29 19:56:00,
2013-11-29 13:01:00,51.6,15.0,30.12,NW,311,2.0,4.0,23,0.00,,---,0.00,VWS V14.01,2013-11-29 20:01:00,
2013-11-29 13:06:00,51.4,14.9,30.12,SW,217,0.0,1.0,23,0.00,,---,0.00,VWS V14.01,2013-11-29 20:06:00,
2013-11-29 13:11:00,50.9,14.4,30.12,NNW,335,3.0,4.0,23,0.00,,---,0.00,VWS V14.01,2013-11-29 20:11:00,
2013-11-29 13:16:00,50.5,14.1,30.12,NW,310,0.0,4.0,23,0.00,,---,0.00,VWS V14.01,2013-11-29 20:16:00,
2013-11-29 13:21:00,50.3,14.9,30.12,WNW,302,3.0,7.0,24,0.00,,---,0.00,VWS V14.01,2013-11-29 20:21:00,
2013-11-29 13:26:00,50.0,14.6,30.12,West,267,3.0,3.0,24,0.00,,---,0.00,VWS V14.01,2013-11-29 20:26:00,
2013-11-29 13:31:00,50.0,15.6,30.12,WNW,296,1.0,3.0,25,0.00,,---,0.00,VWS V14.01,2013-11-29 20:31:00,
2013-11-29 13:36:00,50.1,14.7,30.12,SW,228,0.0,5.0,24,0.00,,---,0.00,VWS V14.01,2013-11-29 20:36:00,
2013-11-29 13:41:00,50.2,15.8,30.12,WNW,296,4.0,6.0,25,0.00,,---,0.00,VWS V14.01,2013-11-29 20:41:00,
2013-11-29 13:46:00,50.1,14.7,30.11,NW,316,2.0,7.0,24,0.00,,---,0.00,VWS V14.01,2013-11-29 20:46:00,
2013-11-29 13:51:00,50.1,13.8,30.12,NNW,341,2.0,3.0,23,0.00,,---,0.00,VWS V14.01,2013-11-29 20:51:00,
2013-11-29 13:56:00,50.1,13.8,30.12,West,269,1.0,7.0,23,0.00,,---,0.00,VWS V14.01,2013-11-29 20:56:00,
2013-11-29 14:01:00,50.1,14.7,30.12,NNW,333,3.0,4.0,24,0.00,,---,0.00,VWS V14.01,2013-11-29 21:01:00,
2013-11-29 14:06:00,50.3,14.9,30.12,SW,232,3.0,8.0,24,0.00,,---,0.00,VWS V14.01,2013-11-29 21:06:00,
2013-11-29 14:11:00,50.6,14.2,30.12,West,271,3.0,5.0,23,0.00,,---,0.00,VWS V14.01,2013-11-29 21:11:00,
2013-11-29 14:16:00,50.6,14.2,30.12,SW,232,2.0,3.0,23,0.00,,---,0.00,VWS V14.01,2013-11-29 21:16:00,
2013-11-29 14:21:00,51.1,14.6,30.11,SW,232,0.0,4.0,23,0.00,,---,0.00,VWS V14.01,2013-11-29 21:21:00,
2013-11-29 14:26:00,51.6,14.0,30.11,WSW,246,2.0,5.0,22,0.00,,---,0.00,VWS V14.01,2013-11-29 21:26:00,
2013-11-29 14:31:00,51.8,14.2,30.11,SSW,211,1.0,1.0,22,0.00,,---,0.00,VWS V14.01,2013-11-29 21:31:00,
2013-11-29 14:36:00,52.3,15.6,30.11,SW,234,1.0,5.0,23,0.00,,---,0.00,VWS V14.01,2013-11-29 21:36:00,
2013-11-29 14:41:00,52.6,14.9,30.11,South,188,2.0,4.0,22,0.00,,---,0.00,VWS V14.01,2013-11-29 21:41:00,
2013-11-29 14:46:00,52.5,14.8,30.11,WNW,284,2.0,6.0,22,0.00,,---,0.00,VWS V14.01,2013-11-29 21:46:00,
2013-11-29 14:51:00,52.2,15.5,30.11,West,275,0.0,4.0,23,0.00,,---,0.00,VWS V14.01,2013-11-29 21:51:00,
2013-11-29 14:56:00,51.7,14.1,30.11,WSW,240,4.0,4.0,22,0.00,,---,0.00,VWS V14.01,2013-11-29 21:56:00,
2013-11-29 15:01:00,51.0,14.5,30.11,WSW,239,0.0,0.0,23,0.00,,---,0.00,VWS V14.01,2013-11-29 22:01:00,
2013-11-29 15:06:00,50.4,14.0,30.11,WSW,255,2.0,2.0,23,0.00,,---,0.00,VWS V14.01,2013-11-29 22:06:00,
2013-11-29 15:11:00,49.8,14.5,30.12,SW,225,0.0,1.0,24,0.00,,---,0.00,VWS V14.01,2013-11-29 22:11:00,
2013-11-29 15:16:00,49.2,14.0,30.11,West,274,3.0,5.0,24,0.00,,---,0.00,VWS V14.01,2013-11-29 22:16:00,
2013-11-29 15:21:00,48.8,14.6,30.11,WNW,284,2.0,2.0,25,0.00,,---,0.00,VWS V14.01,2013-11-29 22:21:00,
2013-11-29 15:26:00,48.5,14.3,30.12,WNW,292,0.0,2.0,25,0.00,,---,0.00,VWS V14.01,2013-11-29 22:26:00,
2013-11-29 15:31:00,48.3,13.2,30.12,WSW,238,1.0,3.0,24,0.00,,---,0.00,VWS V14.01,2013-11-29 22:31:00,
2013-11-29 15:36:00,48.0,14.8,30.12,West,266,3.0,3.0,26,0.00,,---,0.00,VWS V14.01,2013-11-29 22:36:00,
2013-11-29 15:41:00,47.8,13.7,30.12,SW,219,4.0,5.0,25,0.00,,---,0.00,VWS V14.01,2013-11-29 22:41:00,
2013-11-29 15:46:00,47.8,15.5,30.12,WSW,250,0.0,1.0,27,0.00,,---,0.00,VWS V14.01,2013-11-29 22:46:00,
2013-11-29 15:51:00,48.1,14.9,30.12,SW,230,0.0,1.0,26,0.00,,---,0.00,VWS V14.01,2013-11-29 22:51:00,
2013-11-29 15:56:00,48.6,14.4,30.12,WSW,249,0.0,4.0,25,0.00,,---,0.00,VWS V14.01,2013-11-29 22:56:00,
2013-11-29 16:01:00,48.6,14.4,30.12,WSW,249,0.0,0.0,25,0.00,,---,0.00,VWS V14.01,2013-11-29 23:01:00,
2013-11-29 16:06:00,48.3,14.1,30.12,WSW,243,0.0,1.0,25,0.00,,---,0.00,VWS V14.01,2013-11-29 23:06:00,
2013-11-29 16:11:00,47.4,14.2,30.13,WSW,248,0.0,2.0,26,0.00,,---,0.00,VWS V14.01,2013-11-29 23:11:00,
2013-11-29 16:16:00,46.7,13.6,30.13,WSW,248,0.0,1.0,26,0.00,,---,0.00,VWS V14.01,2013-11-29 23:16:00,
2013-11-29 16:21:00,45.9,13.8,30.13,WSW,244,0.0,0.0,27,0.00,,---,0.00,VWS V14.01,2013-11-29 23:21:00,
2013-11-29 16:26:00,45.3,14.1,30.13,WSW,244,0.0,0.0,28,0.00,,---,0.00,VWS V14.01,2013-11-29 23:26:00,
2013-11-29 16:31:00,44.6,13.5,30.13,WSW,244,0.0,0.0,28,0.00,,---,0.00,VWS V14.01,2013-11-29 23:31:00,
2013-11-29 16:36:00,44.0,13.0,30.13,WSW,244,0.0,0.0,28,0.00,,---,0.00,VWS V14.01,2013-11-29 23:36:00,
2013-11-29 16:41:00,43.4,13.3,30.13,WSW,244,0.0,0.0,29,0.00,,---,0.00,VWS V14.01,2013-11-29 23:41:00,
2013-11-29 16:46:00,42.8,12.8,30.13,WSW,244,0.0,0.0,29,0.00,,---,0.00,VWS V14.01,2013-11-29 23:46:00,
2013-11-29 16:51:00,42.2,12.2,30.13,WSW,244,0.0,0.0,29,0.00,,---,0.00,VWS V14.01,2013-11-29 23:51:00,
2013-11-29 16:56:00,41.7,12.6,30.13,WSW,244,0.0,0.0,30,0.00,,---,0.00,VWS V14.01,2013-11-29 23:56:00,
2013-11-29 17:01:00,41.3,12.2,30.13,WSW,244,0.0,1.0,30,0.00,,---,0.00,VWS V14.01,2013-11-30 00:01:00,
2013-11-29 17:06:00,40.7,12.4,30.13,WSW,244,0.0,0.0,31,0.00,,---,0.00,VWS V14.01,2013-11-30 00:06:00,
2013-11-29 17:11:00,40.2,12.0,30.13,WSW,244,0.0,0.0,31,0.00,,---,0.00,VWS V14.01,2013-11-30 00:11:00,
2013-11-29 17:16:00,39.9,12.4,30.13,WSW,244,0.0,0.0,32,0.00,,---,0.00,VWS V14.01,2013-11-30 00:16:00,
2013-11-29 17:21:00,39.6,12.2,30.13,WSW,244,0.0,0.0,32,0.00,,---,0.00,VWS V14.01,2013-11-30 00:21:00,
2013-11-29 17:26:00,39.3,11.9,30.13,WSW,244,0.0,0.0,32,0.00,,---,0.00,VWS V14.01,2013-11-30 00:26:00,
2013-11-29 17:31:00,39.1,12.4,30.13,WSW,244,0.0,0.0,33,0.00,,---,0.00,VWS V14.01,2013-11-30 00:31:00,
2013-11-29 17:36:00,38.9,12.3,30.13,WSW,244,0.0,0.0,33,0.00,,---,0.00,VWS V14.01,2013-11-30 00:36:00,
2013-11-29 17:41:00,38.5,12.6,30.13,WSW,244,0.0,0.0,34,0.00,,---,0.00,VWS V14.01,2013-11-30 00:41:00,
2013-11-29 17:46:00,38.3,12.4,30.13,WSW,244,0.0,0.0,34,0.00,,---,0.00,VWS V14.01,2013-11-30 00:46:00,
2013-11-29 17:50:00,38.0,13.4,30.13,West,260,1.0,2.0,36,0.00,,---,0.00,VWS V14.01,2013-11-30 00:50:00,
2013-11-29 17:55:00,38.2,13.6,30.13,West,274,0.0,1.0,36,0.00,,---,0.00,VWS V14.01,2013-11-30 00:55:00,
2013-11-29 18:00:00,38.2,13.6,30.13,West,274,0.0,0.0,36,0.00,,---,0.00,VWS V14.01,2013-11-30 01:00:00,
2013-11-29 18:05:00,38.3,13.1,30.13,West,275,1.0,1.0,35,0.00,,---,0.00,VWS V14.01,2013-11-30 01:05:00,
2013-11-29 18:10:00,38.4,13.1,30.13,West,275,0.0,1.0,35,0.00,,---,0.00,VWS V14.01,2013-11-30 01:10:00,
2013-11-29 18:15:00,38.2,13.0,30.13,West,275,0.0,0.0,35,0.00,,---,0.00,VWS V14.01,2013-11-30 01:15:00,
2013-11-29 18:20:00,37.7,13.2,30.13,West,275,0.0,0.0,36,0.00,,---,0.00,VWS V14.01,2013-11-30 01:20:00,
2013-11-29 18:25:00,37.2,12.7,30.13,West,275,1.0,1.0,36,0.00,,---,0.00,VWS V14.01,2013-11-30 01:25:00,
2013-11-29 18:30:00,36.7,12.9,30.13,West,265,1.0,3.0,37,0.00,,---,0.00,VWS V14.01,2013-11-30 01:30:00,
2013-11-29 18:35:00,36.5,12.7,30.14,West,269,0.0,0.0,37,0.00,,---,0.00,VWS V14.01,2013-11-30 01:35:00,
2013-11-29 18:40:00,36.4,12.6,30.14,West,259,0.0,1.0,37,0.00,,---,0.00,VWS V14.01,2013-11-30 01:40:00,
2013-11-29 18:45:00,36.3,13.7,30.14,WSW,242,1.0,1.0,39,0.00,,---,0.00,VWS V14.01,2013-11-30 01:45:00,
2013-11-29 18:50:00,35.6,14.2,30.14,SE,142,1.0,2.0,41,0.00,,---,0.00,VWS V14.01,2013-11-30 01:50:00,
2013-11-29 18:55:00,35.2,13.9,30.14,SE,142,0.0,2.0,41,0.00,,---,0.00,VWS V14.01,2013-11-30 01:55:00,
2013-11-29 19:00:00,35.5,13.6,30.14,SE,142,0.0,0.0,40,0.00,,---,0.00,VWS V14.01,2013-11-30 02:00:00,
2013-11-29 19:05:00,36.2,13.1,30.15,SE,142,0.0,0.0,38,0.00,,---,0.00,VWS V14.01,2013-11-30 02:05:00,
2013-11-29 19:10:00,36.4,13.2,30.14,SE,142,0.0,0.0,38,0.00,,---,0.00,VWS V14.01,2013-11-30 02:10:00,
2013-11-29 19:15:00,36.3,13.1,30.14,SE,142,0.0,0.0,38,0.00,,---,0.00,VWS V14.01,2013-11-30 02:15:00,
2013-11-29 19:20:00,35.9,13.4,30.14,SE,142,0.0,0.0,39,0.00,,---,0.00,VWS V14.01,2013-11-30 02:20:00,
2013-11-29 19:25:00,35.3,13.4,30.14,SE,142,0.0,0.0,40,0.00,,---,0.00,VWS V14.01,2013-11-30 02:25:00,
2013-11-29 19:30:00,34.7,13.4,30.14,SE,142,0.0,0.0,41,0.00,,---,0.00,VWS V14.01,2013-11-30 02:30:00,
2013-11-29 19:35:00,34.2,13.5,30.14,SE,142,0.0,0.0,42,0.00,,---,0.00,VWS V14.01,2013-11-30 02:35:00,
2013-11-29 19:40:00,33.8,13.1,30.14,SE,142,0.0,0.0,42,0.00,,---,0.00,VWS V14.01,2013-11-30 02:40:00,
2013-11-29 19:45:00,33.4,13.3,30.14,SE,142,0.0,0.0,43,0.00,,---,0.00,VWS V14.01,2013-11-30 02:45:00,
2013-11-29 19:50:00,33.4,13.9,30.15,SE,142,0.0,0.0,44,0.00,,---,0.00,VWS V14.01,2013-11-30 02:50:00,
2013-11-29 19:55:00,33.7,14.1,30.15,SE,142,0.0,0.0,44,0.00,,---,0.00,VWS V14.01,2013-11-30 02:55:00,
2013-11-29 20:00:00,33.7,14.1,30.15,East,99,0.0,0.0,44,0.00,,---,0.00,VWS V14.01,2013-11-30 03:00:00,
2013-11-29 20:05:00,33.6,14.0,30.15,ENE,78,1.0,2.0,44,0.00,,---,0.00,VWS V14.01,2013-11-30 03:05:00,
2013-11-29 20:10:00,33.8,14.2,30.15,North,5,1.0,3.0,44,0.00,,---,0.00,VWS V14.01,2013-11-30 03:10:00,
2013-11-29 20:15:00,34.3,14.1,30.15,NW,321,1.0,1.0,43,0.00,,---,0.00,VWS V14.01,2013-11-30 03:15:00,
2013-11-29 20:20:00,35.2,14.4,30.15,NW,320,0.0,0.0,42,0.00,,---,0.00,VWS V14.01,2013-11-30 03:20:00,
2013-11-29 20:25:00,35.3,14.5,30.14,NW,320,1.0,2.0,42,0.00,,---,0.00,VWS V14.01,2013-11-30 03:25:00,
2013-11-29 20:30:00,35.6,14.8,30.14,NW,312,2.0,3.0,42,0.00,,---,0.00,VWS V14.01,2013-11-30 03:30:00,
2013-11-29 20:35:00,36.2,14.8,30.14,NW,311,1.0,1.0,41,0.00,,---,0.00,VWS V14.01,2013-11-30 03:35:00,
2013-11-29 20:40:00,35.9,15.1,30.14,NW,307,4.0,4.0,42,0.00,,---,0.00,VWS V14.01,2013-11-30 03:40:00,
2013-11-29 20:45:00,35.7,15.4,30.14,NW,304,3.0,4.0,43,0.00,,---,0.00,VWS V14.01,2013-11-30 03:45:00,
2013-11-29 20:50:00,35.8,15.5,30.15,WNW,303,0.0,0.0,43,0.00,,---,0.00,VWS V14.01,2013-11-30 03:50:00,
2013-11-29 20:55:00,35.3,15.6,30.15,WNW,303,0.0,0.0,44,0.00,,---,0.00,VWS V14.01,2013-11-30 03:55:00,
2013-11-29 21:00:00,34.6,14.4,30.15,WNW,303,0.0,0.0,43,0.00,,---,0.00,VWS V14.01,2013-11-30 04:00:00,
2013-11-29 21:05:00,34.3,14.7,30.15,WNW,303,0.0,0.0,44,0.00,,---,0.00,VWS V14.01,2013-11-30 04:05:00,
2013-11-29 21:10:00,34.3,14.7,30.15,WNW,303,0.0,0.0,44,0.00,,---,0.00,VWS V14.01,2013-11-30 04:10:00,
2013-11-29 21:15:00,34.0,14.9,30.15,WNW,303,0.0,0.0,45,0.00,,---,0.00,VWS V14.01,2013-11-30 04:15:00,
2013-11-29 21:20:00,34.0,15.4,30.14,WNW,303,0.0,0.0,46,0.00,,---,0.00,VWS V14.01,2013-11-30 04:20:00,
2013-11-29 21:25:00,34.0,15.9,30.15,NW,304,1.0,2.0,47,0.00,,---,0.00,VWS V14.01,2013-11-30 04:25:00,
2013-11-29 21:30:00,34.3,15.7,30.15,WNW,303,0.0,1.0,46,0.00,,---,0.00,VWS V14.01,2013-11-30 04:30:00,
2013-11-29 21:35:00,34.6,16.0,30.14,NW,305,1.0,2.0,46,0.00,,---,0.00,VWS V14.01,2013-11-30 04:35:00,
2013-11-29 21:40:00,35.2,16.0,30.14,WNW,301,1.0,5.0,45,0.00,,---,0.00,VWS V14.01,2013-11-30 04:40:00,
2013-11-29 21:45:00,35.6,15.9,30.15,WNW,300,1.0,3.0,44,0.00,,---,0.00,VWS V14.01,2013-11-30 04:45:00,
2013-11-29 21:50:00,35.8,16.0,30.14,WNW,300,1.0,2.0,44,0.00,,---,0.00,VWS V14.01,2013-11-30 04:50:00,
2013-11-29 21:55:00,35.8,16.5,30.14,WNW,300,1.0,1.0,45,0.00,,---,0.00,VWS V14.01,2013-11-30 04:55:00,
2013-11-29 22:00:00,35.4,16.2,30.14,WNW,300,1.0,1.0,45,0.00,,---,0.00,VWS V14.01,2013-11-30 05:00:00,
2013-11-29 22:01:00,35.3,16.1,30.14,WNW,300,0.0,1.0,45,0.00,,---,0.00,VWS V14.01,2013-11-30 05:01:00,
2013-11-29 22:06:00,35.1,15.9,30.14,WNW,300,1.0,2.0,45,0.00,,---,0.00,VWS V14.01,2013-11-30 05:06:00,
2013-11-29 22:11:00,35.3,16.1,30.14,WNW,300,1.0,3.0,45,0.00,,---,0.00,VWS V14.01,2013-11-30 05:11:00,
2013-11-29 22:16:00,35.8,16.0,30.14,WNW,303,0.0,2.0,44,0.00,,---,0.00,VWS V14.01,2013-11-30 05:16:00,
2013-11-29 22:21:00,35.8,16.0,30.14,WNW,289,1.0,2.0,44,0.00,,---,0.00,VWS V14.01,2013-11-30 05:21:00,
2013-11-29 22:26:00,35.4,16.2,30.14,WNW,289,2.0,2.0,45,0.00,,---,0.00,VWS V14.01,2013-11-30 05:26:00,
2013-11-29 22:31:00,35.0,15.8,30.14,WNW,288,0.0,2.0,45,0.00,,---,0.00,VWS V14.01,2013-11-30 05:31:00,
2013-11-29 22:36:00,34.7,15.0,30.14,WNW,289,0.0,1.0,44,0.00,,---,0.00,VWS V14.01,2013-11-30 05:36:00,
2013-11-29 22:41:00,34.8,15.1,30.14,WNW,288,0.0,1.0,44,0.00,,---,0.00,VWS V14.01,2013-11-30 05:41:00,
2013-11-29 22:46:00,35.1,15.4,30.14,WNW,288,0.0,1.0,44,0.00,,---,0.00,VWS V14.01,2013-11-30 05:46:00,
2013-11-29 22:51:00,35.0,15.3,30.14,WNW,288,1.0,1.0,44,0.00,,---,0.00,VWS V14.01,2013-11-30 05:51:00,
2013-11-29 22:56:00,34.8,15.1,30.14,WNW,287,0.0,2.0,44,0.00,,---,0.00,VWS V14.01,2013-11-30 05:56:00,
2013-11-29 23:01:00,34.8,15.1,30.14,WNW,288,0.0,1.0,44,0.00,,---,0.00,VWS V14.01,2013-11-30 06:01:00,
2013-11-29 23:06:00,34.7,14.5,30.14,WNW,288,1.0,1.0,43,0.00,,---,0.00,VWS V14.01,2013-11-30 06:06:00,
2013-11-29 23:11:00,35.0,14.2,30.13,WNW,287,0.0,1.0,42,0.00,,---,0.00,VWS V14.01,2013-11-30 06:11:00,
2013-11-29 23:16:00,35.0,14.2,30.13,WNW,287,0.0,1.0,42,0.00,,---,0.00,VWS V14.01,2013-11-30 06:16:00,
2013-11-29 23:21:00,34.8,14.6,30.13,WNW,297,0.0,1.0,43,0.00,,---,0.00,VWS V14.01,2013-11-30 06:21:00,
2013-11-29 23:26:00,34.5,14.3,30.13,WNW,300,0.0,5.0,43,0.00,,---,0.00,VWS V14.01,2013-11-30 06:26:00,
2013-11-29 23:31:00,34.5,14.9,30.13,NW,307,1.0,1.0,44,0.00,,---,0.00,VWS V14.01,2013-11-30 06:31:00,
2013-11-29 23:36:00,34.4,14.8,30.13,WNW,298,1.0,1.0,44,0.00,,---,0.00,VWS V14.01,2013-11-30 06:36:00,
2013-11-29 23:41:00,34.3,14.7,30.12,WNW,292,1.0,3.0,44,0.00,,---,0.00,VWS V14.01,2013-11-30 06:41:00,
2013-11-29 23:46:00,34.3,14.7,30.12,WNW,291,0.0,1.0,44,0.00,,---,0.00,VWS V14.01,2013-11-30 06:46:00,
2013-11-29 23:51:00,34.1,14.0,30.12,WNW,291,0.0,2.0,43,0.00,,---,0.00,VWS V14.01,2013-11-30 06:51:00,
2013-11-29 23:56:00,33.9,13.8,30.12,WNW,292,0.0,2.0,43,0.00,,---,0.00,VWS V14.01,2013-11-30 06:56:00,